createdAt,value
2023-10-28T00:00:27.201Z,7.03
2023-10-28T00:02:29.326Z,9.57
2023-10-28T00:04:33.186Z,7.83
2023-10-28T00:06:36.264Z,6.13
2023-10-28T00:08:38.507Z,5.87
2023-10-28T00:10:42.409Z,3.57
2023-10-28T00:12:44.956Z,5.40
2023-10-28T00:14:47.012Z,3.87
2023-10-28T00:16:50.361Z,4.13
2023-10-28T00:18:52.414Z,6.77
2023-10-28T00:20:56.270Z,7.13
2023-10-28T00:22:58.981Z,9.50
2023-10-28T00:25:01.145Z,5.93
2023-10-28T00:27:03.336Z,6.70
2023-10-28T00:29:05.591Z,10.83
2023-10-28T00:31:09.771Z,11.83
2023-10-28T00:33:11.887Z,9.20
2023-10-28T00:35:14.061Z,6.57
2023-10-28T00:37:16.408Z,11.87
2023-10-28T00:39:18.548Z,5.03
2023-10-28T00:41:21.601Z,7.13
2023-10-28T00:43:23.878Z,6.60
2023-10-28T00:45:26.006Z,11.10
2023-10-28T00:47:28.077Z,6.97
2023-10-28T00:49:30.545Z,6.70
2023-10-28T00:51:33.456Z,7.80
2023-10-28T00:53:36.244Z,11.03
2023-10-28T00:55:38.569Z,5.80
2023-10-28T00:57:42.546Z,14.20
2023-10-28T00:59:45.148Z,9.57
2023-10-28T01:01:47.909Z,10.60
2023-10-28T01:03:50.142Z,10.33
2023-10-28T01:05:52.299Z,7.23
2023-10-28T01:07:54.369Z,6.37
2023-10-28T01:09:56.762Z,6.67
2023-10-28T01:11:58.910Z,5.60
2023-10-28T01:14:00.963Z,5.03
2023-10-28T01:16:06.077Z,10.20
2023-10-28T01:18:11.388Z,13.10
2023-10-28T01:20:13.910Z,8.63
2023-10-28T01:22:16.128Z,7.63
2023-10-28T01:24:19.031Z,6.07
2023-10-28T01:26:21.511Z,9.17
2023-10-28T01:28:23.730Z,7.77
2023-10-28T01:30:25.866Z,7.50
2023-10-28T01:32:27.927Z,9.30
2023-10-28T01:34:30.415Z,9.63
2023-10-28T01:36:32.502Z,9.57
2023-10-28T01:38:37.602Z,17.50
2023-10-28T01:40:39.969Z,10.73
2023-10-28T01:42:42.595Z,4.93
2023-10-28T01:44:46.605Z,7.13
2023-10-28T01:46:49.015Z,6.83
2023-10-28T01:48:51.200Z,8.93
2023-10-28T01:50:53.230Z,7.37
2023-10-28T01:52:55.332Z,8.80
2023-10-28T01:54:57.439Z,10.60
2023-10-28T01:56:59.818Z,14.27
2023-10-28T01:59:02.679Z,11.77
2023-10-28T02:01:05.010Z,8.10
2023-10-28T02:03:10.062Z,6.57
2023-10-28T02:05:13.811Z,7.10
2023-10-28T02:07:15.911Z,5.50
2023-10-28T02:09:18.846Z,10.03
2023-10-28T02:11:24.558Z,8.43
2023-10-28T02:13:27.297Z,9.10
2023-10-28T02:15:30.930Z,9.20
2023-10-28T02:17:33.120Z,8.03
2023-10-28T02:19:35.301Z,8.90
2023-10-28T02:21:37.454Z,10.97
2023-10-28T02:23:39.502Z,9.10
2023-10-28T02:25:44.470Z,7.30
2023-10-28T02:27:47.725Z,10.00
2023-10-28T02:29:49.953Z,8.67
2023-10-28T02:31:52.087Z,9.93
2023-10-28T02:33:54.438Z,9.00
2023-10-28T02:35:56.529Z,6.43
2023-10-28T02:37:58.691Z,10.80
2023-10-28T02:40:00.817Z,8.30
2023-10-28T02:42:02.868Z,6.50
2023-10-28T02:44:05.877Z,11.57
2023-10-28T02:46:08.069Z,8.47
2023-10-28T02:48:10.182Z,4.03
2023-10-28T02:50:13.751Z,9.40
2023-10-28T02:52:15.981Z,6.70
2023-10-28T02:54:18.362Z,16.17
2023-10-28T02:56:20.496Z,14.27
2023-10-28T02:58:22.682Z,5.93
2023-10-28T03:00:25.171Z,8.37
2023-10-28T03:02:27.520Z,10.30
2023-10-28T03:04:30.506Z,9.57
2023-10-28T03:06:33.591Z,17.33
2023-10-28T03:08:36.748Z,8.27
2023-10-28T03:10:38.896Z,9.93
2023-10-28T03:12:40.933Z,11.37
2023-10-28T03:14:42.972Z,13.30
2023-10-28T03:16:47.261Z,13.50
2023-10-28T03:18:49.414Z,13.87
2023-10-28T03:20:52.081Z,9.17
2023-10-28T03:22:56.975Z,8.80
2023-10-28T03:24:59.312Z,8.30
2023-10-28T03:27:01.426Z,6.60
2023-10-28T03:29:03.869Z,6.87
2023-10-28T03:31:13.900Z,11.77
2023-10-28T03:33:16.336Z,8.80
2023-10-28T03:35:20.386Z,10.97
2023-10-28T03:37:22.421Z,6.43
2023-10-28T03:39:24.528Z,9.03
2023-10-28T03:41:26.590Z,9.17
2023-10-28T03:43:28.584Z,16.90
2023-10-28T03:45:30.659Z,8.90
2023-10-28T03:47:32.715Z,12.43
2023-10-28T03:49:34.811Z,12.73
2023-10-28T03:51:37.477Z,12.47
2023-10-28T03:53:39.664Z,11.13
2023-10-28T03:55:41.736Z,13.00
2023-10-28T03:57:43.843Z,7.97
2023-10-28T03:59:50.786Z,9.37
2023-10-28T04:01:53.073Z,11.17
2023-10-28T04:03:57.222Z,10.90
2023-10-28T04:05:59.198Z,8.83
2023-10-28T04:08:01.257Z,9.07
2023-10-28T04:10:08.855Z,6.13
2023-10-28T04:12:11.136Z,10.30
2023-10-28T04:14:14.390Z,7.30
2023-10-28T04:16:16.565Z,7.27
2023-10-28T04:18:18.701Z,8.00
2023-10-28T04:20:21.223Z,9.40
2023-10-28T04:22:23.262Z,12.40
2023-10-28T04:24:27.072Z,9.10
2023-10-28T04:26:29.330Z,10.87
2023-10-28T04:28:31.458Z,13.80
2023-10-28T04:30:33.468Z,12.33
2023-10-28T04:32:35.660Z,11.97
2023-10-28T04:34:52.216Z,12.13
2023-10-28T04:36:58.260Z,15.67
2023-10-28T04:39:01.146Z,8.07
2023-10-28T04:41:03.256Z,15.43
2023-10-28T04:43:05.914Z,9.77
2023-10-28T04:45:11.381Z,13.50
2023-10-28T04:47:15.099Z,5.97
2023-10-28T04:49:17.263Z,11.93
2023-10-28T04:51:19.347Z,11.90
2023-10-28T04:53:21.430Z,10.17
2023-10-28T04:55:24.515Z,10.60
2023-10-28T04:57:26.929Z,13.20
2023-10-28T04:59:30.819Z,12.40
2023-10-28T05:01:32.810Z,10.20
2023-10-28T05:03:35.986Z,13.17
2023-10-28T05:05:38.718Z,11.30
2023-10-28T05:07:41.943Z,14.13
2023-10-28T05:09:44.227Z,16.00
2023-10-28T05:11:46.825Z,8.40
2023-10-28T05:13:48.961Z,13.60
2023-10-28T05:15:51.001Z,13.77
2023-10-28T05:17:53.097Z,16.67
2023-10-28T05:19:55.226Z,16.73
2023-10-28T05:21:57.658Z,19.60
2023-10-28T05:23:59.722Z,10.17
2023-10-28T05:26:01.875Z,16.20
2023-10-28T05:28:04.071Z,9.83
2023-10-28T05:30:06.963Z,12.03
2023-10-28T05:32:10.144Z,18.70
2023-10-28T05:34:13.302Z,12.43
2023-10-28T05:36:17.253Z,11.43
2023-10-28T05:38:21.554Z,10.90
2023-10-28T05:40:23.869Z,11.13
2023-10-28T05:42:25.950Z,18.67
2023-10-28T05:44:27.972Z,11.93
2023-10-28T05:46:30.086Z,15.53
2023-10-28T05:48:33.737Z,43.07
2023-10-28T05:50:35.745Z,11.13
2023-10-28T05:52:39.766Z,7.60
2023-10-28T05:54:42.160Z,12.37
2023-10-28T05:56:44.673Z,24.33
2023-10-28T05:58:46.831Z,15.97
2023-10-28T06:00:50.871Z,14.57
2023-10-28T06:02:54.570Z,16.50
2023-10-28T06:04:56.704Z,11.03
2023-10-28T06:06:59.053Z,15.63
2023-10-28T06:09:01.506Z,8.93
2023-10-28T06:11:03.613Z,16.37
2023-10-28T06:13:05.708Z,15.07
2023-10-28T06:15:08.429Z,12.10
2023-10-28T06:17:10.638Z,16.00
2023-10-28T06:19:12.731Z,13.70
2023-10-28T06:21:17.856Z,12.63
2023-10-28T06:23:20.036Z,13.10
2023-10-28T06:25:22.121Z,18.23
2023-10-28T06:27:24.132Z,14.70
2023-10-28T06:29:27.313Z,14.73
2023-10-28T06:31:29.535Z,18.00
2023-10-28T06:33:31.710Z,15.53
2023-10-28T06:35:33.854Z,16.57
2023-10-28T06:37:40.936Z,16.20
2023-10-28T06:39:43.286Z,9.53
2023-10-28T06:41:45.413Z,17.83
2023-10-28T06:43:47.505Z,12.43
2023-10-28T06:45:49.656Z,16.80
2023-10-28T06:47:51.900Z,17.43
2023-10-28T06:49:54.027Z,13.87
2023-10-28T06:51:56.204Z,26.10
2023-10-28T06:53:58.402Z,14.67
2023-10-28T06:56:04.189Z,12.10
2023-10-28T06:58:06.317Z,12.63
2023-10-28T07:00:14.357Z,22.90
2023-10-28T07:02:16.435Z,17.20
2023-10-28T07:04:18.518Z,17.77
2023-10-28T07:06:20.634Z,16.17
2023-10-28T07:08:22.859Z,15.73
2023-10-28T07:10:25.014Z,22.83
2023-10-28T07:12:27.244Z,21.37
2023-10-28T07:14:29.376Z,15.47
2023-10-28T07:16:32.205Z,14.20
2023-10-28T07:18:35.160Z,17.27
2023-10-28T07:20:37.259Z,13.17
2023-10-28T07:22:39.446Z,18.60
2023-10-28T07:24:41.521Z,19.47
2023-10-28T07:26:43.880Z,11.13
2023-10-28T07:28:46.381Z,13.57
2023-10-28T07:30:49.810Z,16.03
2023-10-28T07:32:51.920Z,19.90
2023-10-28T07:34:54.035Z,20.73
2023-10-28T07:36:56.060Z,14.20
2023-10-28T07:38:58.102Z,26.33
2023-10-28T07:41:00.269Z,12.10
2023-10-28T07:43:02.324Z,11.20
2023-10-28T07:45:05.497Z,10.57
2023-10-28T07:47:09.258Z,9.83
2023-10-28T07:49:11.851Z,14.63
2023-10-28T07:51:17.725Z,14.60
2023-10-28T07:53:20.124Z,16.57
2023-10-28T07:55:22.265Z,9.33
2023-10-28T07:57:24.392Z,10.80
2023-10-28T07:59:26.562Z,15.07
2023-10-28T08:01:30.729Z,12.83
2023-10-28T08:03:34.864Z,10.63
2023-10-28T08:05:37.163Z,12.70
2023-10-28T08:07:39.314Z,8.13
2023-10-28T08:09:41.366Z,13.50
2023-10-28T08:11:43.983Z,6.47
2023-10-28T08:13:46.040Z,8.50
2023-10-28T08:15:50.850Z,9.80
2023-10-28T08:17:53.828Z,10.23
2023-10-28T08:19:55.951Z,14.73
2023-10-28T08:21:57.967Z,9.70
2023-10-28T08:24:01.161Z,7.37
2023-10-28T08:26:07.135Z,9.20
2023-10-28T08:28:09.221Z,7.53
2023-10-28T08:30:17.196Z,6.70
2023-10-28T08:32:20.136Z,5.80
2023-10-28T08:34:22.277Z,7.90
2023-10-28T08:36:26.299Z,5.13
2023-10-28T08:38:29.048Z,14.67
2023-10-28T08:40:31.110Z,8.80
2023-10-28T08:42:34.404Z,6.70
2023-10-28T08:44:38.756Z,10.00
2023-10-28T08:46:41.997Z,6.17
2023-10-28T08:48:44.692Z,4.60
2023-10-28T08:50:51.498Z,5.20
2023-10-28T08:52:56.853Z,5.47
2023-10-28T08:55:00.852Z,4.70
2023-10-28T08:57:04.817Z,11.00
2023-10-28T08:59:06.889Z,8.73
2023-10-28T09:01:09.655Z,7.27
2023-10-28T09:03:12.117Z,9.97
2023-10-28T09:05:15.947Z,8.57
2023-10-28T09:07:18.063Z,7.10
2023-10-28T09:09:22.517Z,7.07
2023-10-28T09:11:25.059Z,6.70
2023-10-28T09:13:27.117Z,7.53
2023-10-28T09:15:29.441Z,7.50
2023-10-28T09:17:31.560Z,12.43
2023-10-28T09:19:33.604Z,10.47
2023-10-28T09:21:37.430Z,7.33
2023-10-28T09:23:40.595Z,8.40
2023-10-28T09:25:42.752Z,8.43
2023-10-28T09:27:46.700Z,7.20
2023-10-28T09:29:49.833Z,5.63
2023-10-28T09:31:51.908Z,7.67
2023-10-28T09:33:54.121Z,5.77
2023-10-28T09:35:56.340Z,2.97
2023-10-28T09:38:00.202Z,3.83
2023-10-28T09:40:07.282Z,4.57
2023-10-28T09:42:10.632Z,2.60
2023-10-28T09:44:12.798Z,4.20
2023-10-28T09:46:20.011Z,2.43
2023-10-28T09:48:22.168Z,3.07
2023-10-28T09:50:26.787Z,5.13
2023-10-28T09:52:31.776Z,2.97
2023-10-28T09:54:36.164Z,2.73
2023-10-28T09:56:39.033Z,3.73
2023-10-28T09:58:49.861Z,3.80
2023-10-28T10:00:55.962Z,2.70
2023-10-28T10:03:24.015Z,11.67
2023-10-28T10:05:38.066Z,4.23
2023-10-28T10:07:43.358Z,3.37
2023-10-28T10:09:48.974Z,4.20
2023-10-28T10:11:51.716Z,5.40
2023-10-28T10:13:54.553Z,3.20
2023-10-28T10:16:04.775Z,8.57
2023-10-28T10:18:12.611Z,5.23
2023-10-28T10:20:24.863Z,3.73
2023-10-28T10:22:30.918Z,4.10
2023-10-28T10:24:33.389Z,4.73
2023-10-28T10:26:36.478Z,4.50
2023-10-28T10:28:47.640Z,4.73
2023-10-28T10:31:39.405Z,3.10
2023-10-28T10:33:44.530Z,3.53
2023-10-28T10:35:50.441Z,3.53
2023-10-28T10:38:10.430Z,4.63
2023-10-28T10:40:14.990Z,3.83
2023-10-28T10:42:17.632Z,3.57
2023-10-28T10:44:25.930Z,4.10
2023-10-28T10:46:28.116Z,3.07
2023-10-28T10:48:32.388Z,5.43
2023-10-28T10:50:36.371Z,4.80
2023-10-28T10:52:39.633Z,2.93
2023-10-28T10:54:41.737Z,4.63
2023-10-28T10:56:43.781Z,3.60
2023-10-28T10:58:45.843Z,5.17
2023-10-28T11:00:52.585Z,2.20
2023-10-28T11:02:58.856Z,4.17
2023-10-28T11:05:01.124Z,3.47
2023-10-28T11:07:06.774Z,2.73
2023-10-28T11:09:10.227Z,4.87
2023-10-28T11:11:14.653Z,5.50
2023-10-28T11:13:16.794Z,2.87
2023-10-28T11:15:22.811Z,7.03
2023-10-28T11:17:25.307Z,4.30
2023-10-28T11:19:27.542Z,1.57
2023-10-28T11:21:31.274Z,3.03
2023-10-28T11:23:33.503Z,1.20
2023-10-28T11:25:36.625Z,1.20
2023-10-28T11:27:39.196Z,1.90
2023-10-28T11:29:41.472Z,2.03
2023-10-28T11:31:43.659Z,4.50
2023-10-28T11:33:46.761Z,1.73
2023-10-28T11:35:52.013Z,2.50
2023-10-28T11:37:54.492Z,5.17
2023-10-28T11:39:56.662Z,3.43
2023-10-28T11:41:58.990Z,3.63
2023-10-28T11:44:01.433Z,3.13
2023-10-28T11:46:04.806Z,2.67
2023-10-28T11:48:09.862Z,4.73
2023-10-28T11:50:12.455Z,4.60
2023-10-28T11:52:14.748Z,2.40
2023-10-28T11:54:16.852Z,3.73
2023-10-28T11:56:21.109Z,1.37
2023-10-28T11:58:27.663Z,1.83
2023-10-28T12:00:29.855Z,1.63
2023-10-28T12:02:31.914Z,3.80
2023-10-28T12:04:34.013Z,1.30
2023-10-28T12:06:36.629Z,1.30
2023-10-28T12:08:38.812Z,1.40
2023-10-28T12:10:44.708Z,1.83
2023-10-28T12:12:46.767Z,5.07
2023-10-28T12:14:49.322Z,3.03
2023-10-28T12:16:52.117Z,1.67
2023-10-28T12:18:55.619Z,10.30
2023-10-28T12:20:57.965Z,2.63
2023-10-28T12:23:00.382Z,1.57
2023-10-28T12:25:03.120Z,2.53
2023-10-28T12:27:05.376Z,3.13
2023-10-28T12:29:08.258Z,1.43
2023-10-28T12:31:10.471Z,2.40
2023-10-28T12:33:12.637Z,2.07
2023-10-28T12:35:15.106Z,2.80
2023-10-28T12:37:18.090Z,3.43
2023-10-28T12:39:21.541Z,2.73
2023-10-28T12:41:23.640Z,2.40
2023-10-28T12:43:25.761Z,3.13
2023-10-28T12:45:27.882Z,1.73
2023-10-28T12:47:30.019Z,2.43
2023-10-28T12:49:32.199Z,2.73
2023-10-28T12:51:34.951Z,2.50
2023-10-28T12:53:37.114Z,3.63
2023-10-28T12:55:39.323Z,2.90
2023-10-28T12:57:41.514Z,2.63
2023-10-28T12:59:47.894Z,1.90
2023-10-28T13:01:50.254Z,3.40
2023-10-28T13:03:52.735Z,1.73
2023-10-28T13:05:55.060Z,3.53
2023-10-28T13:07:57.075Z,3.43
2023-10-28T13:09:59.066Z,5.43
2023-10-28T13:12:01.322Z,2.90
2023-10-28T13:14:03.472Z,6.10
2023-10-28T13:16:05.946Z,2.13
2023-10-28T13:18:08.412Z,2.47
2023-10-28T13:20:11.593Z,2.20
2023-10-28T13:22:14.197Z,2.30
2023-10-28T13:24:17.311Z,4.37
2023-10-28T13:26:19.400Z,2.40
2023-10-28T13:28:22.033Z,2.70
2023-10-28T13:30:24.188Z,2.60
2023-10-28T13:32:28.872Z,2.47
2023-10-28T13:34:34.619Z,3.00
2023-10-28T13:36:36.688Z,4.53
2023-10-28T13:38:39.239Z,2.77
2023-10-28T13:40:41.396Z,2.23
2023-10-28T13:42:43.384Z,3.47
2023-10-28T13:44:45.494Z,3.47
2023-10-28T13:46:47.578Z,2.97
2023-10-28T13:48:49.602Z,5.63
2023-10-28T13:50:51.701Z,6.53
2023-10-28T13:52:53.866Z,3.27
2023-10-28T13:54:55.959Z,2.60
2023-10-28T13:56:58.857Z,2.47
2023-10-28T13:59:02.371Z,2.33
2023-10-28T14:01:08.921Z,2.37
2023-10-28T14:03:15.670Z,3.13
2023-10-28T14:05:17.875Z,4.20
2023-10-28T14:07:19.969Z,3.03
2023-10-28T14:09:22.064Z,3.93
2023-10-28T14:11:24.937Z,10.60
2023-10-28T14:13:31.428Z,5.17
2023-10-28T14:15:38.162Z,2.10
2023-10-28T14:17:40.929Z,5.07
2023-10-28T14:19:43.328Z,1.70
2023-10-28T14:21:45.458Z,1.77
2023-10-28T14:23:48.238Z,2.93
2023-10-28T14:25:50.287Z,6.60
2023-10-28T14:27:52.417Z,4.63
2023-10-28T14:29:54.629Z,3.60
2023-10-28T14:31:56.734Z,5.13
2023-10-28T14:34:00.076Z,8.83
2023-10-28T14:36:09.822Z,5.00
2023-10-28T14:38:12.033Z,4.90
2023-10-28T14:40:14.690Z,2.60
2023-10-28T14:42:16.770Z,3.67
2023-10-28T14:44:18.771Z,5.50
2023-10-28T14:46:20.830Z,5.67
2023-10-28T14:48:23.461Z,5.83
2023-10-28T14:50:26.207Z,1.70
2023-10-28T14:52:28.396Z,3.13
2023-10-28T14:54:30.557Z,7.70
2023-10-28T14:56:32.721Z,3.70
2023-10-28T14:58:34.805Z,2.60
2023-10-28T15:00:37.516Z,4.50
2023-10-28T15:02:39.850Z,4.57
2023-10-28T15:04:47.345Z,5.60
2023-10-28T15:06:49.738Z,3.23
2023-10-28T15:08:52.521Z,4.63
2023-10-28T15:10:54.763Z,8.33
2023-10-28T15:12:57.003Z,7.40
2023-10-28T15:15:00.619Z,8.13
2023-10-28T15:17:02.956Z,9.17
2023-10-28T15:19:05.093Z,9.97
2023-10-28T15:21:17.544Z,11.13
2023-10-28T15:23:19.998Z,7.87
2023-10-28T15:25:22.089Z,10.33
2023-10-28T15:27:24.185Z,8.57
2023-10-28T15:29:26.225Z,4.20
2023-10-28T15:31:29.456Z,5.00
2023-10-28T15:33:31.536Z,6.03
2023-10-28T15:35:33.815Z,5.47
2023-10-28T15:37:36.001Z,6.70
2023-10-28T15:39:38.197Z,6.30
2023-10-28T15:41:40.437Z,11.77
2023-10-28T15:43:43.881Z,17.23
2023-10-28T15:45:45.979Z,7.00
2023-10-28T15:47:48.079Z,8.37
2023-10-28T15:49:51.276Z,6.90
2023-10-28T15:51:53.419Z,4.90
2023-10-28T15:53:55.557Z,7.53
2023-10-28T15:55:57.671Z,5.10
2023-10-28T15:57:59.732Z,7.43
2023-10-28T16:00:05.151Z,8.20
2023-10-28T16:02:07.539Z,10.77
2023-10-28T16:04:12.321Z,8.30
2023-10-28T16:06:14.542Z,5.80
2023-10-28T16:08:16.812Z,7.27
2023-10-28T16:10:19.293Z,8.30
2023-10-28T16:12:21.323Z,6.30
2023-10-28T16:14:25.844Z,6.77
2023-10-28T16:16:29.962Z,5.57
2023-10-28T16:18:32.068Z,6.10
2023-10-28T16:20:34.561Z,7.50
2023-10-28T16:22:39.286Z,12.80
2023-10-28T16:24:41.429Z,6.47
2023-10-28T16:26:47.936Z,6.53
2023-10-28T16:28:50.022Z,5.63
2023-10-28T16:30:53.424Z,3.60
2023-10-28T16:32:55.735Z,8.97
2023-10-28T16:34:57.863Z,7.73
2023-10-28T16:37:00.063Z,9.23
2023-10-28T16:39:02.725Z,11.93
2023-10-28T16:41:05.106Z,9.67
2023-10-28T16:43:08.029Z,9.93
2023-10-28T16:45:12.289Z,8.17
2023-10-28T16:47:15.601Z,7.17
2023-10-28T16:49:18.281Z,9.30
2023-10-28T16:51:21.239Z,9.83
2023-10-28T16:53:26.446Z,10.20
2023-10-28T16:55:28.608Z,8.73
2023-10-28T16:57:31.050Z,9.47
2023-10-28T16:59:33.174Z,8.10
2023-10-28T17:01:35.349Z,9.27
2023-10-28T17:03:37.817Z,11.00
2023-10-28T17:05:39.968Z,8.77
2023-10-28T17:07:42.674Z,11.30
2023-10-28T17:09:45.110Z,9.13
2023-10-28T17:11:48.012Z,10.00
2023-10-28T17:13:52.053Z,9.20
2023-10-28T17:15:54.183Z,8.37
2023-10-28T17:17:56.950Z,10.00
2023-10-28T17:19:59.780Z,10.10
2023-10-28T17:22:01.858Z,8.43
2023-10-28T17:24:04.307Z,8.13
2023-10-28T17:26:06.769Z,7.97
2023-10-28T17:28:08.967Z,10.03
2023-10-28T17:30:11.664Z,12.83
2023-10-28T17:32:15.469Z,10.87
2023-10-28T17:34:17.894Z,9.50
2023-10-28T17:36:20.070Z,11.43
2023-10-28T17:38:23.250Z,10.50
2023-10-28T17:40:25.439Z,8.30
2023-10-28T17:42:27.755Z,10.17
2023-10-28T17:44:29.965Z,14.43
2023-10-28T17:46:32.129Z,11.87
2023-10-28T17:48:34.281Z,11.20
2023-10-28T17:50:36.576Z,11.10
2023-10-28T17:52:38.767Z,9.00
2023-10-28T17:54:40.848Z,9.93
2023-10-28T17:56:42.981Z,7.93
2023-10-28T17:58:47.645Z,9.40
2023-10-28T18:00:50.468Z,6.20
2023-10-28T18:02:52.884Z,9.50
2023-10-28T18:04:55.193Z,5.13
2023-10-28T18:06:58.074Z,7.43
2023-10-28T18:09:00.984Z,7.87
2023-10-28T18:11:05.506Z,11.60
2023-10-28T18:13:07.894Z,11.33
2023-10-28T18:15:10.482Z,20.60
2023-10-28T18:17:12.557Z,18.97
2023-10-28T18:19:14.616Z,13.73
2023-10-28T18:21:16.958Z,11.73
2023-10-28T18:23:20.518Z,6.07
2023-10-28T18:25:22.921Z,6.43
2023-10-28T18:27:24.989Z,6.93
2023-10-28T18:29:27.631Z,8.00
2023-10-28T18:31:29.859Z,6.87
2023-10-28T18:33:32.829Z,10.63
2023-10-28T18:35:35.209Z,6.40
2023-10-28T18:37:37.809Z,7.57
2023-10-28T18:39:40.002Z,6.63
2023-10-28T18:41:42.274Z,6.07
2023-10-28T18:43:44.704Z,8.07
2023-10-28T18:45:46.847Z,9.13
2023-10-28T18:47:49.141Z,9.03
2023-10-28T18:49:51.441Z,14.67
2023-10-28T18:51:53.632Z,6.53
2023-10-28T18:53:55.646Z,10.30
2023-10-28T18:56:11.269Z,9.90
2023-10-28T18:58:13.914Z,5.83
2023-10-28T19:00:17.838Z,7.77
2023-10-28T19:02:20.091Z,9.60
2023-10-28T19:04:22.252Z,9.63
2023-10-28T19:06:24.561Z,11.23
2023-10-28T19:08:26.664Z,7.20
2023-10-28T19:10:29.098Z,7.73
2023-10-28T19:12:31.231Z,6.00
2023-10-28T19:14:33.417Z,5.50
2023-10-28T19:16:35.573Z,6.03
2023-10-28T19:18:39.010Z,8.50
2023-10-28T19:20:41.207Z,7.37
2023-10-28T19:22:44.581Z,6.20
2023-10-28T19:24:46.679Z,7.17
2023-10-28T19:26:50.014Z,8.00
2023-10-28T19:28:52.155Z,8.63
2023-10-28T19:30:54.243Z,10.03
2023-10-28T19:32:56.407Z,8.70
2023-10-28T19:34:58.858Z,13.20
2023-10-28T19:37:01.082Z,7.83
2023-10-28T19:39:05.270Z,7.17
2023-10-28T19:41:07.933Z,8.73
2023-10-28T19:43:10.109Z,7.20
2023-10-28T19:45:13.832Z,8.33
2023-10-28T19:47:16.075Z,6.40
2023-10-28T19:49:19.382Z,9.63
2023-10-28T19:51:22.151Z,8.23
2023-10-28T19:53:24.346Z,10.57
2023-10-28T19:55:26.448Z,12.27
2023-10-28T19:57:28.656Z,8.07
2023-10-28T19:59:30.820Z,8.53
2023-10-28T20:01:33.029Z,8.33
2023-10-28T20:03:35.816Z,11.47
2023-10-28T20:05:38.021Z,13.23
2023-10-28T20:07:40.350Z,7.13
2023-10-28T20:09:43.724Z,8.33
2023-10-28T20:11:45.913Z,8.90
2023-10-28T20:13:52.035Z,7.57
2023-10-28T20:15:54.271Z,13.30
2023-10-28T20:17:56.753Z,13.50
2023-10-28T20:19:59.239Z,11.40
2023-10-28T20:22:01.347Z,8.13
2023-10-28T20:24:03.516Z,7.83
2023-10-28T20:26:06.498Z,8.30
2023-10-28T20:28:08.590Z,9.40
2023-10-28T20:30:11.490Z,15.90
2023-10-28T20:32:13.681Z,10.70
2023-10-28T20:34:15.750Z,8.00
2023-10-28T20:36:17.832Z,7.10
2023-10-28T20:38:19.865Z,6.63
2023-10-28T20:40:22.192Z,6.50
2023-10-28T20:42:24.379Z,5.17
2023-10-28T20:44:26.450Z,6.53
2023-10-28T20:46:28.732Z,4.00
2023-10-28T20:48:31.629Z,6.03
2023-10-28T20:50:33.958Z,6.33
2023-10-28T20:52:36.190Z,7.33
2023-10-28T20:54:38.308Z,4.00
2023-10-28T20:56:40.595Z,5.33
2023-10-28T20:58:42.682Z,5.37
2023-10-28T21:00:45.052Z,6.70
2023-10-28T21:02:48.503Z,5.77
2023-10-28T21:04:50.615Z,5.03
2023-10-28T21:06:52.715Z,5.80
2023-10-28T21:08:56.536Z,5.30
2023-10-28T21:10:58.622Z,5.57
2023-10-28T21:13:00.622Z,3.20
2023-10-28T21:15:02.713Z,5.70
2023-10-28T21:17:07.276Z,6.87
2023-10-28T21:19:09.785Z,6.67
2023-10-28T21:21:11.871Z,4.47
2023-10-28T21:23:13.957Z,6.50
2023-10-28T21:25:16.382Z,3.90
2023-10-28T21:27:18.548Z,6.27
2023-10-28T21:29:20.631Z,5.00
2023-10-28T21:31:22.863Z,4.33
2023-10-28T21:33:24.909Z,2.80
2023-10-28T21:35:27.386Z,4.47
2023-10-28T21:37:29.480Z,5.00
2023-10-28T21:39:31.712Z,8.40
2023-10-28T21:41:33.823Z,2.63
2023-10-28T21:43:36.090Z,5.23
2023-10-28T21:45:39.630Z,2.90
2023-10-28T21:47:41.741Z,4.37
2023-10-28T21:49:43.802Z,5.87
2023-10-28T21:51:45.906Z,4.83
2023-10-28T21:53:48.066Z,4.13
2023-10-28T21:55:50.104Z,4.83
2023-10-28T21:57:52.205Z,4.87
2023-10-28T21:59:54.371Z,8.80
2023-10-28T22:01:56.397Z,8.73
2023-10-28T22:03:58.585Z,5.53
2023-10-28T22:06:00.634Z,5.40
2023-10-28T22:08:02.914Z,8.03
2023-10-28T22:10:05.129Z,7.60
2023-10-28T22:12:07.457Z,5.60
2023-10-28T22:14:09.633Z,4.80
2023-10-28T22:16:11.738Z,6.57
2023-10-28T22:18:16.684Z,8.73
2023-10-28T22:20:19.023Z,5.20
2023-10-28T22:22:21.162Z,6.83
2023-10-28T22:24:23.189Z,11.27
2023-10-28T22:26:25.230Z,5.80
2023-10-28T22:28:27.413Z,6.93
2023-10-28T22:30:29.593Z,11.47
2023-10-28T22:32:31.749Z,7.73
2023-10-28T22:34:33.862Z,8.33
2023-10-28T22:36:35.877Z,9.10
2023-10-28T22:38:38.765Z,9.30
2023-10-28T22:40:41.538Z,9.10
2023-10-28T22:42:44.368Z,10.33
2023-10-28T22:44:46.617Z,10.37
2023-10-28T22:46:48.993Z,8.77
2023-10-28T22:48:51.070Z,10.90
2023-10-28T22:50:53.288Z,7.63
2023-10-28T22:52:55.417Z,9.07
2023-10-28T22:54:57.468Z,9.80
2023-10-28T22:57:00.599Z,9.97
2023-10-28T22:59:02.705Z,7.50
2023-10-28T23:01:05.635Z,8.80
2023-10-28T23:03:11.328Z,5.10
2023-10-28T23:05:13.494Z,11.53
2023-10-28T23:07:17.540Z,5.40
2023-10-28T23:09:20.289Z,9.50
2023-10-28T23:11:22.472Z,9.70
2023-10-28T23:13:24.475Z,7.30
2023-10-28T23:15:26.948Z,6.37
2023-10-28T23:17:29.097Z,9.07
2023-10-28T23:19:31.336Z,7.50
2023-10-28T23:21:33.581Z,5.60
2023-10-28T23:23:35.803Z,9.50
2023-10-28T23:25:37.850Z,7.93
2023-10-28T23:27:42.625Z,7.80
2023-10-28T23:29:45.304Z,9.83
2023-10-28T23:31:47.457Z,15.30
2023-10-28T23:33:50.129Z,11.83
2023-10-28T23:35:52.340Z,9.03
2023-10-28T23:37:54.440Z,6.20
2023-10-28T23:39:56.525Z,5.40
2023-10-28T23:42:01.134Z,8.80
2023-10-28T23:44:03.235Z,6.33
2023-10-28T23:46:11.150Z,9.73
2023-10-28T23:48:14.666Z,6.80
2023-10-28T23:50:17.760Z,13.83
2023-10-28T23:52:19.871Z,6.67
2023-10-28T23:54:22.518Z,4.23
2023-10-28T23:56:25.200Z,6.50
2023-10-28T23:58:27.292Z,6.47
